Emneth, United Kingdom
Current Conditions -  °F | °C
As of 3:50 PM on Friday 31 Oct 2014 (Local Time) from EGYM Reporting Station
Clear Clear  
Wind Chill: 66°   Ceiling: Unl
Heat Index: 66°   Visibility: 6mi
Dew Point: 57°   Wind: 13mph
Humidity: 73%   Direction: 150°SSE
Pressure: 29.94"   Gusts: NA
Location:  52.64°N, 0.21°E
Report Text: EGYM 311550Z 15011KT CAVOK 19/14 Q1014 BLU NOSIG
Loading
Personal Weather Stations






























Interactive Weather Map
Tropical Storm Tracking
New forecast layout! Learn more

10-Day Weather Forecast

Advertisements
Track Severe Weather on mobile